createdAt,value
2022-12-17T00:00:44.868Z,101693.34
2022-12-17T00:03:31.342Z,101697.56
2022-12-17T00:06:17.433Z,101704.28
2022-12-17T00:09:03.281Z,101705.97
2022-12-17T00:11:50.579Z,101700.88
2022-12-17T00:14:36.744Z,101702.50
2022-12-17T00:17:22.346Z,101704.13
2022-12-17T00:20:08.305Z,101711.94
2022-12-17T00:22:54.148Z,101712.25
2022-12-17T00:25:39.836Z,101714.03
2022-12-17T00:28:29.732Z,101717.50
2022-12-17T00:31:16.446Z,101728.09
2022-12-17T00:34:02.685Z,101720.72
2022-12-17T00:36:48.336Z,101732.88
2022-12-17T00:39:34.028Z,101725.38
2022-12-17T00:42:19.844Z,101730.78
2022-12-17T00:45:07.533Z,101726.44
2022-12-17T00:47:53.327Z,101729.72
2022-12-17T00:50:39.527Z,101733.78
2022-12-17T00:53:25.321Z,101738.88
2022-12-17T00:56:11.284Z,101743.66
2022-12-17T00:58:57.036Z,101744.59
2022-12-17T01:01:44.466Z,101747.28
2022-12-17T01:04:30.782Z,101747.28
2022-12-17T01:07:16.645Z,101757.47
2022-12-17T01:10:02.344Z,101753.88
2022-12-17T01:12:47.931Z,101755.69
2022-12-17T01:15:34.157Z,101766.00
2022-12-17T01:18:36.313Z,101765.41
2022-12-17T01:21:23.392Z,101765.88
2022-12-17T01:24:09.684Z,101767.69
2022-12-17T01:26:56.225Z,101765.72
2022-12-17T01:29:56.529Z,101764.06
2022-12-17T01:32:54.075Z,101776.81
2022-12-17T01:35:41.859Z,101779.34
2022-12-17T01:38:29.901Z,101779.34
2022-12-17T01:41:15.580Z,101771.59
2022-12-17T01:44:01.492Z,101779.84
2022-12-17T01:46:52.183Z,101777.00
2022-12-17T01:49:41.509Z,101775.94
2022-12-17T01:52:30.461Z,101792.59
2022-12-17T01:55:16.618Z,101784.03
2022-12-17T01:58:07.860Z,101786.56
2022-12-17T02:00:54.028Z,101789.88
2022-12-17T02:03:40.479Z,101778.50
2022-12-17T02:06:30.214Z,101790.78
2022-12-17T02:09:28.062Z,101785.69
2022-12-17T02:12:22.546Z,101789.56
2022-12-17T02:15:15.392Z,101787.19
2022-12-17T02:18:08.086Z,101786.31
2022-12-17T02:21:09.154Z,101787.50
2022-12-17T02:24:04.713Z,101785.69
2022-12-17T02:26:55.581Z,101787.75
2022-12-17T02:29:43.010Z,101785.38
2022-12-17T02:32:31.857Z,101785.38
2022-12-17T02:35:20.423Z,101784.75
2022-12-17T02:38:07.061Z,101793.78
2022-12-17T02:40:56.947Z,101796.94
2022-12-17T02:43:46.337Z,101785.38
2022-12-17T02:46:32.513Z,101798.28
2022-12-17T02:49:18.968Z,101800.69
2022-12-17T02:52:05.173Z,101809.56
2022-12-17T02:55:03.423Z,101800.72
2022-12-17T02:57:53.659Z,101807.59
2022-12-17T03:00:41.509Z,101815.69
2022-12-17T03:03:27.626Z,101810.00
2022-12-17T03:06:13.746Z,101814.66
2022-12-17T03:08:59.595Z,101812.13
2022-12-17T03:11:47.271Z,101821.72
2022-12-17T03:14:33.375Z,101824.25
2022-12-17T03:17:26.365Z,101820.50
2022-12-17T03:20:12.571Z,101836.09
2022-12-17T03:22:58.509Z,101823.03
2022-12-17T03:25:44.454Z,101836.38
2022-12-17T03:28:30.843Z,101834.13
2022-12-17T03:31:17.315Z,101841.47
2022-12-17T03:34:05.263Z,101841.47
2022-12-17T03:36:51.044Z,101844.78
2022-12-17T03:39:36.711Z,101842.81
2022-12-17T03:42:23.103Z,101841.34
2022-12-17T03:45:08.836Z,101848.06
2022-12-17T03:47:54.654Z,101853.31
2022-12-17T03:50:44.276Z,101860.06
2022-12-17T03:53:30.217Z,101865.75
2022-12-17T03:56:16.045Z,101866.06
2022-12-17T03:59:04.141Z,101864.25
2022-12-17T04:01:50.182Z,101864.25
2022-12-17T04:04:44.758Z,101866.19
2022-12-17T04:07:32.371Z,101865.16
2022-12-17T04:10:18.031Z,101871.59
2022-12-17T04:13:03.742Z,101879.97
2022-12-17T04:15:49.500Z,101887.31
2022-12-17T04:18:35.660Z,101889.69
2022-12-17T04:21:21.391Z,101893.16
2022-12-17T04:24:08.978Z,101890.59
2022-12-17T04:26:54.708Z,101895.09
2022-12-17T04:29:42.409Z,101901.13
2022-12-17T04:32:33.657Z,101899.59
2022-12-17T04:35:20.927Z,101901.25
2022-12-17T04:38:07.157Z,101902.00
2022-12-17T04:40:54.722Z,101901.41
2022-12-17T04:43:40.461Z,101900.22
2022-12-17T04:46:26.234Z,101900.97
2022-12-17T04:49:12.373Z,101896.91
2022-12-17T04:51:58.107Z,101903.78
2022-12-17T04:54:43.961Z,101908.59
2022-12-17T04:57:31.234Z,101902.16
2022-12-17T05:00:17.033Z,101901.72
2022-12-17T05:03:02.898Z,101909.81
2022-12-17T05:05:49.026Z,101906.34
2022-12-17T05:08:41.074Z,101910.25
2022-12-17T05:11:27.537Z,101910.13
2022-12-17T05:14:20.242Z,101917.88
2022-12-17T05:17:06.387Z,101918.78
2022-12-17T05:19:52.214Z,101923.13
2022-12-17T05:22:37.805Z,101926.28
2022-12-17T05:25:29.821Z,101928.66
2022-12-17T05:28:15.727Z,101929.72
2022-12-17T05:31:18.577Z,101939.16
2022-12-17T05:34:04.630Z,101936.47
2022-12-17T05:36:50.348Z,101942.31
2022-12-17T05:39:36.248Z,101949.94
2022-12-17T05:42:22.394Z,101953.09
2022-12-17T05:45:08.353Z,101950.22
2022-12-17T05:47:55.897Z,101958.59
2022-12-17T05:50:41.546Z,101967.00
2022-12-17T05:53:28.193Z,101964.13
2022-12-17T05:56:14.111Z,101976.88
2022-12-17T05:58:59.604Z,101977.63
2022-12-17T06:01:45.495Z,101987.50
2022-12-17T06:04:33.028Z,101993.31
2022-12-17T06:07:18.716Z,101993.31
2022-12-17T06:10:04.405Z,101993.66
2022-12-17T06:12:50.001Z,101999.06
2022-12-17T06:15:36.122Z,101992.59
2022-12-17T06:18:22.470Z,102002.03
2022-12-17T06:21:11.368Z,102002.03
2022-12-17T06:23:57.272Z,102004.88
2022-12-17T06:26:43.076Z,102001.63
2022-12-17T06:29:28.715Z,102005.03
2022-12-17T06:32:16.696Z,102008.50
2022-12-17T06:35:02.614Z,102010.28
2022-12-17T06:37:50.112Z,102010.13
2022-12-17T06:40:36.413Z,102009.97
2022-12-17T06:43:22.237Z,102019.44
2022-12-17T06:46:10.165Z,102024.22
2022-12-17T06:48:55.870Z,102030.47
2022-12-17T06:51:43.951Z,102034.81
2022-12-17T06:54:31.297Z,102040.97
2022-12-17T06:57:13.664Z,102042.16
2022-12-17T07:00:05.133Z,102053.06
2022-12-17T07:02:51.451Z,102059.06
2022-12-17T07:05:37.337Z,102057.44
2022-12-17T07:08:23.713Z,102069.09
2022-12-17T07:11:22.766Z,102072.81
2022-12-17T07:14:17.215Z,102081.03
2022-12-17T07:17:03.088Z,102091.78
2022-12-17T07:19:49.199Z,102096.28
2022-12-17T07:22:35.003Z,102094.66
2022-12-17T07:25:20.824Z,102092.88
2022-12-17T07:28:13.288Z,102099.75
2022-12-17T07:30:59.562Z,102103.06
2022-12-17T07:33:53.683Z,102096.88
2022-12-17T07:36:40.097Z,102104.50
2022-12-17T07:39:25.888Z,102096.00
2022-12-17T07:42:11.526Z,102106.47
2022-12-17T07:44:59.020Z,102111.75
2022-12-17T07:47:44.712Z,102113.97
2022-12-17T07:50:30.429Z,102115.63
2022-12-17T07:53:19.629Z,102124.75
2022-12-17T07:56:17.002Z,102136.56
2022-12-17T07:59:02.916Z,102133.91
2022-12-17T08:01:50.468Z,102147.53
2022-12-17T08:04:36.520Z,102151.78
2022-12-17T08:07:22.258Z,102150.91
2022-12-17T08:10:08.035Z,102148.34
2022-12-17T08:12:56.143Z,102157.38
2022-12-17T08:15:47.342Z,102152.69
2022-12-17T08:18:34.661Z,102160.56
2022-12-17T08:21:20.450Z,102164.38
2022-12-17T08:24:06.732Z,102155.34
2022-12-17T08:26:52.403Z,102154.44
2022-12-17T08:29:38.211Z,102155.53
2022-12-17T08:32:24.326Z,102159.28
2022-12-17T08:35:11.621Z,102162.88
2022-12-17T08:37:57.899Z,102162.88
2022-12-17T08:40:43.593Z,102163.78
2022-12-17T08:43:29.324Z,102172.47
2022-12-17T08:46:15.172Z,102173.50
2022-12-17T08:49:01.015Z,102170.41
2022-12-17T08:51:48.626Z,102166.47
2022-12-17T08:54:34.288Z,102180.59
2022-12-17T08:57:32.488Z,102188.16
2022-12-17T09:00:18.791Z,102193.31
2022-12-17T09:03:05.075Z,102198.34
2022-12-17T09:05:51.121Z,102198.28
2022-12-17T09:08:38.688Z,102204.84
2022-12-17T09:11:24.461Z,102204.53
2022-12-17T09:14:10.216Z,102199.75
2022-12-17T09:16:55.946Z,102208.59
2022-12-17T09:19:42.174Z,102213.28
2022-12-17T09:22:27.972Z,102218.72
2022-12-17T09:25:15.526Z,102210.00
2022-12-17T09:28:01.561Z,102203.44
2022-12-17T09:30:47.476Z,102204.06
2022-12-17T09:33:34.457Z,102204.38
2022-12-17T09:36:21.947Z,102209.56
2022-12-17T09:39:08.333Z,102209.28
2022-12-17T09:42:08.149Z,102213.03
2022-12-17T09:45:01.577Z,102208.41
2022-12-17T09:47:56.508Z,102211.47
2022-12-17T09:50:42.609Z,102201.69
2022-12-17T09:53:40.686Z,102215.22
2022-12-17T09:56:30.990Z,102223.00
2022-12-17T09:59:18.605Z,102217.47
2022-12-17T10:02:04.466Z,102223.16
2022-12-17T10:04:53.656Z,102224.66
2022-12-17T10:07:42.903Z,102225.72
2022-12-17T10:10:38.209Z,102235.91
2022-12-17T10:13:29.519Z,102223.56
2022-12-17T10:16:17.157Z,102234.09
2022-12-17T10:19:03.813Z,102241.75
2022-12-17T10:21:50.400Z,102241.41
2022-12-17T10:24:36.023Z,102243.97
2022-12-17T10:27:27.220Z,102246.50
2022-12-17T10:30:13.332Z,102244.63
2022-12-17T10:33:00.871Z,102249.06
2022-12-17T10:35:55.322Z,102248.34
2022-12-17T10:38:43.459Z,102252.97
2022-12-17T10:41:39.337Z,102248.81
2022-12-17T10:45:47.251Z,102244.28
2022-12-17T10:48:39.908Z,102255.69
2022-12-17T10:51:38.348Z,102244.94
2022-12-17T10:54:34.333Z,102255.13
2022-12-17T10:57:20.748Z,102259.06
2022-12-17T11:00:07.035Z,102255.16
2022-12-17T11:02:53.751Z,102256.50
2022-12-17T11:05:45.532Z,102260.84
2022-12-17T11:08:34.986Z,102256.13
2022-12-17T11:11:30.998Z,102262.16
2022-12-17T11:17:33.453Z,102269.03
2022-12-17T11:20:32.690Z,102279.13
2022-12-17T11:23:22.435Z,102278.06
2022-12-17T11:26:14.840Z,102280.56
2022-12-17T11:29:04.102Z,102283.53
2022-12-17T11:32:01.905Z,102288.06
2022-12-17T11:34:55.939Z,102290.03
2022-12-17T11:37:49.716Z,102297.38
2022-12-17T11:40:43.237Z,102291.28
2022-12-17T11:43:40.279Z,102294.72
2022-12-17T11:46:37.489Z,102294.19
2022-12-17T11:49:31.440Z,102298.13
2022-12-17T11:52:25.339Z,102302.41
2022-12-17T11:55:20.701Z,102305.03
2022-12-17T11:58:14.409Z,102298.53
2022-12-17T12:01:12.828Z,102298.47
2022-12-17T12:04:13.677Z,102302.69
2022-12-17T12:07:09.778Z,102301.66
2022-12-17T12:10:06.545Z,102308.75
2022-12-17T12:13:04.891Z,102300.31
2022-12-17T12:16:02.847Z,102310.13
2022-12-17T12:19:10.853Z,102306.84
2022-12-17T12:21:58.438Z,102305.66
2022-12-17T12:24:59.482Z,102302.19
2022-12-17T12:27:53.379Z,102315.81
2022-12-17T12:30:41.640Z,102322.22
2022-12-17T12:33:45.909Z,102322.53
2022-12-17T12:36:39.088Z,102321.69
2022-12-17T12:39:31.304Z,102318.41
2022-12-17T12:42:25.530Z,102334.00
2022-12-17T12:45:21.357Z,102338.56
2022-12-17T12:48:12.124Z,102346.94
2022-12-17T12:51:07.761Z,102334.91
2022-12-17T12:53:53.694Z,102345.97
2022-12-17T12:56:52.950Z,102347.50
2022-12-17T12:59:44.651Z,102348.66
2022-12-17T13:02:44.092Z,102353.44
2022-12-17T13:05:34.396Z,102353.94
2022-12-17T13:08:17.115Z,102362.53
2022-12-17T13:10:45.951Z,102357.69
2022-12-17T13:13:28.042Z,102363.88
2022-12-17T13:16:00.856Z,102353.84
2022-12-17T13:18:33.345Z,102362.06
2022-12-17T13:21:05.228Z,102362.28
2022-12-17T13:23:38.140Z,102368.88
2022-12-17T13:26:32.550Z,102360.25
2022-12-17T13:29:14.500Z,102358.47
2022-12-17T13:31:52.766Z,102364.44
2022-12-17T13:34:28.059Z,102361.72
2022-12-17T13:37:03.998Z,102369.84
2022-12-17T13:39:51.809Z,102365.66
2022-12-17T13:42:29.941Z,102377.41
2022-12-17T13:44:59.599Z,102374.88
2022-12-17T13:47:30.792Z,102378.16
2022-12-17T13:52:49.687Z,102390.84
2022-12-17T13:55:31.511Z,102390.91
2022-12-17T13:58:00.030Z,102398.88
2022-12-17T14:00:32.477Z,102401.34
2022-12-17T14:03:12.092Z,102407.09
2022-12-17T14:05:45.362Z,102408.81
2022-12-17T14:08:17.002Z,102414.88
2022-12-17T14:11:13.342Z,102421.50
2022-12-17T14:13:41.786Z,102417.34
2022-12-17T14:16:10.398Z,102426.19
2022-12-17T14:18:42.701Z,102430.06
2022-12-17T14:21:14.851Z,102429.88
2022-12-17T14:23:47.558Z,102437.34
2022-12-17T14:26:18.308Z,102434.31
2022-12-17T14:28:50.426Z,102421.75
2022-12-17T14:31:27.057Z,102431.94
2022-12-17T14:34:07.838Z,102426.50
2022-12-17T14:36:38.663Z,102426.56
2022-12-17T14:39:19.076Z,102433.00
2022-12-17T14:42:12.626Z,102424.97
2022-12-17T14:44:52.809Z,102439.72
2022-12-17T14:47:23.525Z,102438.44
2022-12-17T14:49:58.244Z,102439.50
2022-12-17T14:52:43.768Z,102443.84
2022-12-17T14:55:31.880Z,102444.25
2022-12-17T14:58:19.552Z,102456.00
2022-12-17T15:00:51.733Z,102452.16
2022-12-17T15:03:23.913Z,102457.31
2022-12-17T15:06:02.300Z,102456.34
2022-12-17T15:08:34.761Z,102449.31
2022-12-17T15:11:03.732Z,102463.00
2022-12-17T15:13:33.717Z,102456.09
2022-12-17T15:16:02.688Z,102467.28
2022-12-17T15:18:31.303Z,102464.84
2022-12-17T15:21:00.324Z,102471.53
2022-12-17T15:23:28.872Z,102469.78
2022-12-17T15:25:57.434Z,102473.78
2022-12-17T15:28:29.363Z,102472.38
2022-12-17T15:30:59.559Z,102479.66
2022-12-17T15:33:29.390Z,102489.09
2022-12-17T15:35:59.132Z,102491.66
2022-12-17T15:38:27.680Z,102493.97
2022-12-17T15:40:56.386Z,102501.25
2022-12-17T15:43:24.136Z,102501.63
2022-12-17T15:45:53.449Z,102497.28
2022-12-17T15:48:23.784Z,102508.69
2022-12-17T15:50:52.249Z,102499.25
2022-12-17T15:53:20.972Z,102509.19
2022-12-17T15:55:49.578Z,102502.28
2022-12-17T15:58:19.201Z,102504.38
2022-12-17T16:00:47.834Z,102507.28
2022-12-17T16:03:16.715Z,102513.69
2022-12-17T16:05:46.721Z,102514.50
2022-12-17T16:08:15.275Z,102526.34
2022-12-17T16:10:43.834Z,102514.38
2022-12-17T16:13:12.467Z,102517.66
2022-12-17T16:15:41.030Z,102511.84
2022-12-17T16:18:09.711Z,102502.78
2022-12-17T16:20:39.575Z,102513.50
2022-12-17T16:23:09.645Z,102517.66
2022-12-17T16:25:41.144Z,102514.06
2022-12-17T16:28:10.109Z,102521.34
2022-12-17T16:30:38.636Z,102518.22
2022-12-17T16:33:10.397Z,102527.53
2022-12-17T16:36:28.463Z,102523.69
2022-12-17T16:38:58.937Z,102529.38
2022-12-17T16:41:27.429Z,102520.69
2022-12-17T16:43:56.180Z,102527.75
2022-12-17T16:46:28.093Z,102534.28
2022-12-17T16:48:58.152Z,102535.56
2022-12-17T16:51:29.584Z,102543.56
2022-12-17T16:54:00.509Z,102539.22
2022-12-17T16:56:31.899Z,102538.31
2022-12-17T16:59:05.280Z,102548.97
2022-12-17T17:01:33.975Z,102543.66
2022-12-17T17:04:05.393Z,102540.56
2022-12-17T17:06:34.301Z,102545.69
2022-12-17T17:09:06.119Z,102544.75
2022-12-17T17:11:34.849Z,102546.06
2022-12-17T17:14:03.433Z,102548.25
2022-12-17T17:16:34.106Z,102548.56
2022-12-17T17:19:03.045Z,102550.22
2022-12-17T17:21:37.061Z,102556.28
2022-12-17T17:24:15.343Z,102550.88
2022-12-17T17:26:47.226Z,102552.16
2022-12-17T17:29:15.807Z,102562.19
2022-12-17T17:32:14.391Z,102564.72
2022-12-17T17:34:33.135Z,102562.41
2022-12-17T17:37:01.681Z,102567.09
2022-12-17T17:39:33.315Z,102568.75
2022-12-17T17:42:02.227Z,102577.81
2022-12-17T17:44:30.860Z,102582.19
2022-12-17T17:46:59.583Z,102587.59
2022-12-17T17:49:28.909Z,102585.44
2022-12-17T17:52:09.511Z,102587.63
2022-12-17T17:54:41.317Z,102584.00
2022-12-17T17:57:10.446Z,102589.09
2022-12-17T17:59:40.427Z,102584.94
2022-12-17T18:02:11.982Z,102584.00
2022-12-17T18:04:41.129Z,102582.94
2022-12-17T18:07:25.274Z,102589.47
2022-12-17T18:09:56.687Z,102596.75
2022-12-17T18:12:42.379Z,102591.66
2022-12-17T18:15:14.896Z,102604.19
2022-12-17T18:17:45.113Z,102605.47
2022-12-17T18:20:14.148Z,102604.75
2022-12-17T18:22:43.394Z,102598.22
2022-12-17T18:25:13.406Z,102610.72
2022-12-17T18:27:42.612Z,102603.47
2022-12-17T18:30:12.057Z,102597.28
2022-12-17T18:32:42.626Z,102610.53
2022-12-17T18:35:11.541Z,102606.53
2022-12-17T18:37:40.144Z,102613.97
2022-12-17T18:40:09.996Z,102608.34
2022-12-17T18:42:57.573Z,102614.16
2022-12-17T18:45:26.047Z,102613.41
2022-12-17T18:47:54.506Z,102618.16
2022-12-17T18:50:23.008Z,102620.88
2022-12-17T18:52:51.487Z,102625.41
2022-12-17T18:55:20.022Z,102626.50
2022-12-17T18:57:53.720Z,102632.88
2022-12-17T19:00:25.262Z,102632.50
2022-12-17T19:02:56.970Z,102644.28
2022-12-17T19:05:25.575Z,102641.38
2022-12-17T19:07:54.238Z,102643.38
2022-12-17T19:10:23.063Z,102649.00
2022-12-17T19:12:53.116Z,102654.44
2022-12-17T19:15:21.733Z,102654.09
2022-12-17T19:17:53.056Z,102667.69
2022-12-17T19:20:31.151Z,102660.25
2022-12-17T19:22:59.691Z,102665.88
2022-12-17T19:25:28.183Z,102659.00
2022-12-17T19:27:58.024Z,102667.84
2022-12-17T19:30:49.332Z,102664.22
2022-12-17T19:33:23.799Z,102667.84
2022-12-17T19:35:52.408Z,102675.28
2022-12-17T19:38:20.890Z,102676.19
2022-12-17T19:40:52.193Z,102674.69
2022-12-17T19:43:23.286Z,102680.16
2022-12-17T19:45:54.488Z,102671.97
2022-12-17T19:48:24.648Z,102679.03
2022-12-17T19:50:57.683Z,102690.66
2022-12-17T19:53:27.312Z,102704.22
2022-12-17T19:55:56.482Z,102696.59
2022-12-17T19:58:27.982Z,102694.78
2022-12-17T20:00:57.870Z,102696.75
2022-12-17T20:03:26.708Z,102696.41
2022-12-17T20:05:55.476Z,102691.66
2022-12-17T20:08:24.135Z,102697.47
2022-12-17T20:10:55.555Z,102695.47
2022-12-17T20:13:24.319Z,102700.41
2022-12-17T20:16:01.985Z,102716.38
2022-12-17T20:18:32.536Z,102715.25
2022-12-17T20:21:05.017Z,102723.19
2022-12-17T20:23:36.911Z,102734.03
2022-12-17T20:26:07.750Z,102724.25
2022-12-17T20:28:40.248Z,102725.66
2022-12-17T20:31:11.083Z,102721.28
2022-12-17T20:33:43.327Z,102724.88
2022-12-17T20:36:14.811Z,102724.19
2022-12-17T20:38:44.774Z,102723.28
2022-12-17T20:41:15.919Z,102714.94
2022-12-17T20:43:44.548Z,102721.28
2022-12-17T20:46:19.142Z,102728.19
2022-12-17T20:48:48.163Z,102733.63
2022-12-17T20:51:19.256Z,102742.16
2022-12-17T20:53:48.445Z,102736.19
2022-12-17T20:56:19.063Z,102723.19
2022-12-17T20:58:53.523Z,102727.31
2022-12-17T21:01:26.366Z,102741.97
2022-12-17T21:03:56.445Z,102741.97
2022-12-17T21:06:26.883Z,102752.25
2022-12-17T21:08:56.490Z,102746.63
2022-12-17T21:11:40.673Z,102741.13
2022-12-17T21:14:16.767Z,102741.31
2022-12-17T21:16:47.521Z,102748.72
2022-12-17T21:19:18.291Z,102741.84
2022-12-17T21:21:49.032Z,102750.91
2022-12-17T21:24:18.499Z,102744.59
2022-12-17T21:26:48.147Z,102741.66
2022-12-17T21:29:18.060Z,102751.25
2022-12-17T21:31:50.009Z,102751.66
2022-12-17T21:34:27.444Z,102760.88
2022-12-17T21:36:56.189Z,102766.47
2022-12-17T21:39:24.776Z,102761.81
2022-12-17T21:42:10.593Z,102759.34
2022-12-17T21:44:39.189Z,102762.56
2022-12-17T21:47:11.202Z,102769.44
2022-12-17T21:49:39.724Z,102763.09
2022-12-17T21:52:20.480Z,102771.56
2022-12-17T21:54:52.224Z,102775.38
2022-12-17T21:57:20.862Z,102773.00
2022-12-17T21:59:52.039Z,102776.63
2022-12-17T22:02:25.097Z,102781.69
2022-12-17T22:04:54.000Z,102777.03
2022-12-17T22:07:24.795Z,102783.91
2022-12-17T22:10:11.617Z,102777.38
2022-12-17T22:13:07.267Z,102783.16
2022-12-17T22:15:46.738Z,102786.38
2022-12-17T22:18:22.151Z,102788.84
2022-12-17T22:20:58.929Z,102789.50
2022-12-17T22:23:27.839Z,102788.25
2022-12-17T22:25:56.673Z,102799.31
2022-12-17T22:28:25.247Z,102800.75
2022-12-17T22:31:11.889Z,102796.25
2022-12-17T22:33:42.605Z,102796.59
2022-12-17T22:37:26.731Z,102795.69
2022-12-17T22:42:39.501Z,102806.53
2022-12-17T22:44:39.381Z,102817.53
2022-12-17T22:45:29.699Z,102816.81
2022-12-17T22:47:58.250Z,102820.28
2022-12-17T22:50:34.387Z,102821.69
2022-12-17T22:53:13.054Z,102829.28
2022-12-17T22:55:56.267Z,102830.72
2022-12-17T22:58:33.328Z,102838.00
2022-12-17T23:01:01.775Z,102838.19
2022-12-17T23:03:32.851Z,102841.66
2022-12-17T23:06:13.767Z,102842.47
2022-12-17T23:08:45.850Z,102851.00
2022-12-17T23:11:16.704Z,102849.88
2022-12-17T23:13:45.797Z,102845.31
2022-12-17T23:16:15.197Z,102838.84
2022-12-17T23:18:45.621Z,102842.28
2022-12-17T23:21:18.461Z,102846.66
2022-12-17T23:23:47.607Z,102848.47
2022-12-17T23:26:17.795Z,102848.47
2022-12-17T23:28:46.555Z,102855.16
2022-12-17T23:31:17.866Z,102849.88
2022-12-17T23:33:47.894Z,102859.13
2022-12-17T23:36:20.923Z,102855.09
2022-12-17T23:38:50.293Z,102851.44
2022-12-17T23:41:21.141Z,102846.56
2022-12-17T23:43:50.434Z,102843.19
2022-12-17T23:46:19.981Z,102850.78
2022-12-17T23:48:49.230Z,102852.28
2022-12-17T23:51:21.013Z,102848.84
2022-12-17T23:53:49.717Z,102860.22
2022-12-17T23:56:19.861Z,102864.50
2022-12-17T23:58:52.500Z,102860.16
